sensor_id;sensor_type;location;lat;lon;timestamp;pressure;altitude;pressure_sealevel;temperature;humidity
78210;BME280;67485;48.816;9.930;2023-02-01T10:56:11;97384.91;;;3.60;86.98
78210;BME280;67485;48.816;9.930;2023-02-01T10:58:44;97385.75;;;3.57;87.36
78210;BME280;67485;48.816;9.930;2023-02-01T11:01:30;97373.59;;;3.53;86.76
78210;BME280;67485;48.816;9.930;2023-02-01T11:04:04;97374.50;;;3.55;87.09
78210;BME280;67485;48.816;9.930;2023-02-01T11:06:39;97361.59;;;3.61;86.83
78210;BME280;67485;48.816;9.930;2023-02-01T11:11:32;97347.69;;;3.53;86.49
78210;BME280;67485;48.816;9.930;2023-02-01T11:14:00;97343.41;;;3.56;86.61
78210;BME280;67485;48.816;9.930;2023-02-01T11:16:36;97344.28;;;3.57;86.65
78210;BME280;67485;48.816;9.930;2023-02-01T11:19:02;97344.28;;;3.60;86.40
78210;BME280;67485;48.816;9.930;2023-02-01T11:21:29;97347.00;;;3.71;85.86
78210;BME280;67485;48.816;9.930;2023-02-01T11:23:55;97347.84;;;3.71;85.51
78210;BME280;67485;48.816;9.930;2023-02-01T11:26:26;97339.19;;;3.66;85.66
78210;BME280;67485;48.816;9.930;2023-02-01T11:28:59;97349.47;;;3.60;85.61
78210;BME280;67485;48.816;9.930;2023-02-01T11:31:27;97348.56;;;3.55;85.73
78210;BME280;67485;48.816;9.930;2023-02-01T11:33:58;97332.19;;;3.59;85.41
78210;BME280;67485;48.816;9.930;2023-02-01T11:36:27;97344.34;;;3.63;85.96
78210;BME280;67485;48.816;9.930;2023-02-01T11:44:29;97351.09;;;3.49;85.28
78210;BME280;67485;48.816;9.930;2023-02-01T11:46:56;97342.44;;;3.47;85.53
78210;BME280;67485;48.816;9.930;2023-02-01T11:49:37;97344.16;;;3.46;85.49
78210;BME280;67485;48.816;9.930;2023-02-01T12:06:04;97325.31;;;3.60;85.08
78210;BME280;67485;48.816;9.930;2023-02-01T12:11:46;97308.91;;;3.61;84.41
78210;BME280;67485;48.816;9.930;2023-02-01T12:15:03;97313.28;;;3.69;84.01
78210;BME280;67485;48.816;9.930;2023-02-01T12:17:22;97308.22;;;3.85;83.92
78210;BME280;67485;48.816;9.930;2023-02-01T12:25:57;97299.59;;;3.86;81.96
78210;BME280;67485;48.816;9.930;2023-02-01T12:31:53;97297.78;;;3.76;82.46
78210;BME280;67485;48.816;9.930;2023-02-01T12:34:39;97290.81;;;3.71;82.12
78210;BME280;67485;48.816;9.930;2023-02-01T12:43:01;97290.88;;;3.75;81.84
78210;BME280;67485;48.816;9.930;2023-02-01T12:50:45;97298.53;;;3.65;82.64
78210;BME280;67485;48.816;9.930;2023-02-01T12:53:18;97294.25;;;3.67;82.48
78210;BME280;67485;48.816;9.930;2023-02-01T12:55:54;97283.88;;;3.67;82.62
78210;BME280;67485;48.816;9.930;2023-02-01T12:58:25;97289.13;;;3.72;82.29
78210;BME280;67485;48.816;9.930;2023-02-01T13:01:15;97292.56;;;3.69;82.21
78210;BME280;67485;48.816;9.930;2023-02-01T13:03:59;97288.22;;;3.71;81.84
78210;BME280;67485;48.816;9.930;2023-02-01T13:06:35;97283.00;;;3.62;81.99
78210;BME280;67485;48.816;9.930;2023-02-01T13:09:32;97292.50;;;3.63;81.99
78210;BME280;67485;48.816;9.930;2023-02-01T13:12:10;97289.03;;;3.60;82.09
78210;BME280;67485;48.816;9.930;2023-02-01T13:14:49;97286.41;;;3.58;82.51
78210;BME280;67485;48.816;9.930;2023-02-01T13:17:22;97295.91;;;3.59;81.83
78210;BME280;67485;48.816;9.930;2023-02-01T13:22:31;97270.06;;;3.68;81.39
78210;BME280;67485;48.816;9.930;2023-02-01T13:25:01;97277.88;;;3.73;81.01
78210;BME280;67485;48.816;9.930;2023-02-01T13:27:29;97279.59;;;3.71;81.20
78210;BME280;67485;48.816;9.930;2023-02-01T13:43:33;97282.16;;;3.66;80.41
78210;BME280;67485;48.816;9.930;2023-02-01T13:46:05;97278.72;;;3.70;79.84
78210;BME280;67485;48.816;9.930;2023-02-01T13:48:59;97268.38;;;3.77;80.26
78210;BME280;67485;48.816;9.930;2023-02-01T13:51:40;97266.63;;;3.69;80.72
78210;BME280;67485;48.816;9.930;2023-02-01T13:56:49;97258.75;;;3.59;78.93
78210;BME280;67485;48.816;9.930;2023-02-01T13:59:44;97269.97;;;3.59;78.86
78210;BME280;67485;48.816;9.930;2023-02-01T14:05:10;97271.72;;;3.57;79.34
78210;BME280;67485;48.816;9.930;2023-02-01T14:07:36;97268.28;;;3.61;80.23
78210;BME280;67485;48.816;9.930;2023-02-01T14:13:41;97254.44;;;3.59;79.71
78210;BME280;67485;48.816;9.930;2023-02-01T14:16:15;97254.47;;;3.62;79.61
78210;BME280;67485;48.816;9.930;2023-02-01T14:23:56;97249.19;;;3.53;80.19
78210;BME280;67485;48.816;9.930;2023-02-01T14:32:07;97252.69;;;3.52;80.67
78210;BME280;67485;48.816;9.930;2023-02-01T14:44:44;97268.19;;;3.49;80.53
78210;BME280;67485;48.816;9.930;2023-02-01T14:50:07;97276.81;;;3.48;80.34
78210;BME280;67485;48.816;9.930;2023-02-01T14:52:39;97275.06;;;3.47;80.73
78210;BME280;67485;48.816;9.930;2023-02-01T14:55:35;97262.16;;;3.50;80.87
78210;BME280;67485;48.816;9.930;2023-02-01T14:58:15;97257.81;;;3.49;80.86
78210;BME280;67485;48.816;9.930;2023-02-01T15:00:53;97269.06;;;3.52;80.79
78210;BME280;67485;48.816;9.930;2023-02-01T15:06:29;97269.03;;;3.46;81.19
78210;BME280;67485;48.816;9.930;2023-02-01T15:09:17;97275.00;;;3.40;81.40
78210;BME280;67485;48.816;9.930;2023-02-01T15:14:31;97278.41;;;3.33;81.22
78210;BME280;67485;48.816;9.930;2023-02-01T15:16:57;97280.19;;;3.37;80.99
78210;BME280;67485;48.816;9.930;2023-02-01T15:19:25;97285.34;;;3.37;81.29
78210;BME280;67485;48.816;9.930;2023-02-01T15:21:53;97279.34;;;3.40;81.28
78210;BME280;67485;48.816;9.930;2023-02-01T15:24:25;97276.72;;;3.38;80.74
78210;BME280;67485;48.816;9.930;2023-02-01T15:26:52;97276.72;;;3.38;81.15
78210;BME280;67485;48.816;9.930;2023-02-01T15:29:20;97285.34;;;3.37;81.24
78210;BME280;67485;48.816;9.930;2023-02-01T15:31:49;97296.56;;;3.36;80.90
78210;BME280;67485;48.816;9.930;2023-02-01T15:34:15;97292.22;;;3.32;81.05
78210;BME280;67485;48.816;9.930;2023-02-01T15:36:42;97296.56;;;3.36;81.11
78210;BME280;67485;48.816;9.930;2023-02-01T15:41:52;97307.78;;;3.35;80.44
78210;BME280;67485;48.816;9.930;2023-02-01T15:46:57;97304.41;;;3.43;78.74
78210;BME280;67485;48.816;9.930;2023-02-01T15:51:51;97288.06;;;3.48;78.43
78210;BME280;67485;48.816;9.930;2023-02-01T15:54:24;97294.09;;;3.46;78.58
78210;BME280;67485;48.816;9.930;2023-02-01T15:56:53;97297.53;;;3.46;78.50
78210;BME280;67485;48.816;9.930;2023-02-01T15:59:25;97292.28;;;3.41;78.82
78210;BME280;67485;48.816;9.930;2023-02-01T16:01:53;97295.78;;;3.47;78.50
78210;BME280;67485;48.816;9.930;2023-02-01T16:04:24;97303.59;;;3.48;77.82
78210;BME280;67485;48.816;9.930;2023-02-01T16:06:58;97302.75;;;3.51;77.79
78210;BME280;67485;48.816;9.930;2023-02-01T16:09:41;97310.50;;;3.49;78.15
78210;BME280;67485;48.816;9.930;2023-02-01T16:15:04;97302.78;;;3.54;77.28
78210;BME280;67485;48.816;9.930;2023-02-01T16:17:31;97303.66;;;3.54;77.06
78210;BME280;67485;48.816;9.930;2023-02-01T16:19:56;97306.31;;;3.62;76.51
78210;BME280;67485;48.816;9.930;2023-02-01T16:22:23;97302.00;;;3.63;75.95
78210;BME280;67485;48.816;9.930;2023-02-01T16:24:49;97284.69;;;3.60;75.94
78210;BME280;67485;48.816;9.930;2023-02-01T16:27:15;97285.53;;;3.56;77.15
78210;BME280;67485;48.816;9.930;2023-02-01T16:29:40;97295.00;;;3.55;76.74
78210;BME280;67485;48.816;9.930;2023-02-01T16:32:17;97293.25;;;3.53;77.00
78210;BME280;67485;48.816;9.930;2023-02-01T16:34:43;97298.44;;;3.51;77.53
78210;BME280;67485;48.816;9.930;2023-02-01T16:37:13;97306.16;;;3.47;78.22
78210;BME280;67485;48.816;9.930;2023-02-01T16:39:39;97300.97;;;3.44;78.37
78210;BME280;67485;48.816;9.930;2023-02-01T16:42:12;97297.53;;;3.45;78.46
78210;BME280;67485;48.816;9.930;2023-02-01T16:44:39;97301.75;;;3.38;78.48
78210;BME280;67485;48.816;9.930;2023-02-01T16:47:21;97292.22;;;3.35;78.65
78210;BME280;67485;48.816;9.930;2023-02-01T16:49:47;97305.19;;;3.34;79.51
78210;BME280;67485;48.816;9.930;2023-02-01T16:52:21;97302.59;;;3.35;78.96
78210;BME280;67485;48.816;9.930;2023-02-01T16:54:48;97306.91;;;3.33;78.74
78210;BME280;67485;48.816;9.930;2023-02-01T16:57:16;97301.78;;;3.39;78.63
78210;BME280;67485;48.816;9.930;2023-02-01T16:59:42;97300.91;;;3.37;79.21
78210;BME280;67485;48.816;9.930;2023-02-01T17:02:15;97307.81;;;3.37;79.27
78210;BME280;67485;48.816;9.930;2023-02-01T17:04:41;97307.81;;;3.38;79.50
78210;BME280;67485;48.816;9.930;2023-02-01T17:07:13;97300.91;;;3.40;79.24
78210;BME280;67485;48.816;9.930;2023-02-01T17:09:39;97313.00;;;3.37;79.44
78210;BME280;67485;48.816;9.930;2023-02-01T17:12:05;97304.34;;;3.36;79.56
78210;BME280;67485;48.816;9.930;2023-02-01T17:14:34;97322.47;;;3.33;79.94
78210;BME280;67485;48.816;9.930;2023-02-01T17:17:02;97303.50;;;3.37;79.54
78210;BME280;67485;48.816;9.930;2023-02-01T17:19:27;97306.94;;;3.38;79.57
78210;BME280;67485;48.816;9.930;2023-02-01T17:21:55;97312.13;;;3.36;79.27
78210;BME280;67485;48.816;9.930;2023-02-01T17:24:30;97305.22;;;3.37;79.34
78210;BME280;67485;48.816;9.930;2023-02-01T17:26:56;97312.97;;;3.35;79.66
78210;BME280;67485;48.816;9.930;2023-02-01T17:29:22;97314.69;;;3.33;79.84
78210;BME280;67485;48.816;9.930;2023-02-01T17:31:52;97317.28;;;3.35;79.60
78210;BME280;67485;48.816;9.930;2023-02-01T17:34:19;97313.84;;;3.36;80.23
78210;BME280;67485;48.816;9.930;2023-02-01T17:36:48;97321.63;;;3.37;79.31
78210;BME280;67485;48.816;9.930;2023-02-01T17:39:14;97329.41;;;3.39;79.27
78210;BME280;67485;48.816;9.930;2023-02-01T17:42:01;97331.09;;;3.35;79.53
78210;BME280;67485;48.816;9.930;2023-02-01T17:44:30;97332.84;;;3.38;79.54
78210;BME280;67485;48.816;9.930;2023-02-01T17:46:56;97323.31;;;3.35;79.85
78210;BME280;67485;48.816;9.930;2023-02-01T17:49:24;97314.63;;;3.30;79.55
78210;BME280;67485;48.816;9.930;2023-02-01T17:51:50;97311.19;;;3.31;79.43
78210;BME280;67485;48.816;9.930;2023-02-01T17:54:16;97320.78;;;3.37;79.74
78210;BME280;67485;48.816;9.930;2023-02-01T17:56:42;97318.97;;;3.33;79.28
78210;BME280;67485;48.816;9.930;2023-02-01T17:59:08;97318.13;;;3.32;79.69
78210;BME280;67485;48.816;9.930;2023-02-01T18:01:34;97312.06;;;3.32;79.46
78210;BME280;67485;48.816;9.930;2023-02-01T18:03:59;97314.69;;;3.33;78.94
78210;BME280;67485;48.816;9.930;2023-02-01T18:06:26;97317.25;;;3.32;79.64
78210;BME280;67485;48.816;9.930;2023-02-01T18:08:52;97319.03;;;3.34;79.53
78210;BME280;67485;48.816;9.930;2023-02-01T18:11:20;97325.06;;;3.33;78.90
78210;BME280;67485;48.816;9.930;2023-02-01T18:13:47;97325.00;;;3.30;79.10
78210;BME280;67485;48.816;9.930;2023-02-01T18:16:23;97327.59;;;3.32;79.15
78210;BME280;67485;48.816;9.930;2023-02-01T18:18:50;97332.81;;;3.33;79.84
78210;BME280;67485;48.816;9.930;2023-02-01T18:21:18;97334.59;;;3.39;78.60
78210;BME280;67485;48.816;9.930;2023-02-01T18:23:44;97337.16;;;3.36;78.41
78210;BME280;67485;48.816;9.930;2023-02-01T18:26:11;97343.19;;;3.33;79.07
78210;BME280;67485;48.816;9.930;2023-02-01T18:28:37;97335.41;;;3.35;78.63
78210;BME280;67485;48.816;9.930;2023-02-01T18:31:04;97349.28;;;3.38;78.70
78210;BME280;67485;48.816;9.930;2023-02-01T18:33:30;97341.47;;;3.35;78.84
78210;BME280;67485;48.816;9.930;2023-02-01T18:35:56;97328.50;;;3.32;79.17
78210;BME280;67485;48.816;9.930;2023-02-01T18:38:22;97328.50;;;3.32;79.56
78210;BME280;67485;48.816;9.930;2023-02-01T18:40:49;97325.06;;;3.33;79.20
78210;BME280;67485;48.816;9.930;2023-02-01T18:43:16;97324.16;;;3.33;79.38
78210;BME280;67485;48.816;9.930;2023-02-01T18:45:43;97341.44;;;3.32;78.69
78210;BME280;67485;48.816;9.930;2023-02-01T18:48:13;97338.84;;;3.32;79.08
78210;BME280;67485;48.816;9.930;2023-02-01T18:50:42;97327.59;;;3.30;79.28
78210;BME280;67485;48.816;9.930;2023-02-01T18:53:14;97350.91;;;3.30;79.40
78210;BME280;67485;48.816;9.930;2023-02-01T18:55:40;97344.03;;;3.32;79.04
78210;BME280;67485;48.816;9.930;2023-02-01T18:58:06;97335.38;;;3.30;79.44
78210;BME280;67485;48.816;9.930;2023-02-01T19:00:33;97331.03;;;3.29;79.54
78210;BME280;67485;48.816;9.930;2023-02-01T19:03:00;97341.38;;;3.26;78.98
78210;BME280;67485;48.816;9.930;2023-02-01T19:05:26;97342.28;;;3.28;79.29
78210;BME280;67485;48.816;9.930;2023-02-01T19:07:52;97338.81;;;3.29;78.94
78210;BME280;67485;48.816;9.930;2023-02-01T19:10:20;97339.69;;;3.31;78.60
78210;BME280;67485;48.816;9.930;2023-02-01T19:12:50;97331.88;;;3.27;79.10
78210;BME280;67485;48.816;9.930;2023-02-01T19:15:17;97332.75;;;3.27;79.46
78210;BME280;67485;48.816;9.930;2023-02-01T19:17:47;97329.31;;;3.30;78.88
78210;BME280;67485;48.816;9.930;2023-02-01T19:20:18;97328.50;;;3.32;78.97
78210;BME280;67485;48.816;9.930;2023-02-01T19:22:45;97335.38;;;3.30;78.91
78210;BME280;67485;48.816;9.930;2023-02-01T19:25:19;97330.22;;;3.33;78.56
78210;BME280;67485;48.816;9.930;2023-02-01T19:27:46;97339.75;;;3.34;78.57
78210;BME280;67485;48.816;9.930;2023-02-01T19:30:12;97334.53;;;3.31;78.15
78210;BME280;67485;48.816;9.930;2023-02-01T19:32:39;97320.66;;;3.29;78.46
78210;BME280;67485;48.816;9.930;2023-02-01T19:35:06;97314.63;;;3.30;78.92
78210;BME280;67485;48.816;9.930;2023-02-01T19:37:32;97321.63;;;3.34;78.83
78210;BME280;67485;48.816;9.930;2023-02-01T19:39:58;97314.69;;;3.36;78.79
78210;BME280;67485;48.816;9.930;2023-02-01T19:42:25;97315.53;;;3.34;78.33
78210;BME280;67485;48.816;9.930;2023-02-01T19:44:51;97318.97;;;3.33;78.87
78210;BME280;67485;48.816;9.930;2023-02-01T19:47:17;97309.47;;;3.30;78.39
78210;BME280;67485;48.816;9.930;2023-02-01T19:49:42;97314.69;;;3.33;78.92
78210;BME280;67485;48.816;9.930;2023-02-01T19:52:08;97311.25;;;3.37;78.77
78210;BME280;67485;48.816;9.930;2023-02-01T19:54:34;97309.53;;;3.36;78.86
78210;BME280;67485;48.816;9.930;2023-02-01T19:56:59;97315.53;;;3.34;78.44
78210;BME280;67485;48.816;9.930;2023-02-01T19:59:25;97309.53;;;3.36;78.60
78210;BME280;67485;48.816;9.930;2023-02-01T20:01:51;97314.69;;;3.33;78.78
78210;BME280;67485;48.816;9.930;2023-02-01T20:04:17;97312.94;;;3.31;78.95
78210;BME280;67485;48.816;9.930;2023-02-01T20:06:45;97312.94;;;3.32;78.53
78210;BME280;67485;48.816;9.930;2023-02-01T20:09:27;97325.00;;;3.30;78.95
78210;BME280;67485;48.816;9.930;2023-02-01T20:11:54;97325.91;;;3.35;78.60
78210;BME280;67485;48.816;9.930;2023-02-01T20:14:21;97325.06;;;3.36;78.88
78210;BME280;67485;48.816;9.930;2023-02-01T20:16:47;97331.97;;;3.34;78.85
78210;BME280;67485;48.816;9.930;2023-02-01T20:19:13;97330.22;;;3.33;78.69
78210;BME280;67485;48.816;9.930;2023-02-01T20:21:39;97341.44;;;3.32;79.30
78210;BME280;67485;48.816;9.930;2023-02-01T20:24:09;97339.78;;;3.39;78.79
78210;BME280;67485;48.816;9.930;2023-02-01T20:26:35;97343.19;;;3.33;79.83
78210;BME280;67485;48.816;9.930;2023-02-01T20:29:01;97339.72;;;3.33;79.90
78210;BME280;67485;48.816;9.930;2023-02-01T20:31:27;97344.88;;;3.33;80.12
78210;BME280;67485;48.816;9.930;2023-02-01T20:33:58;97340.47;;;3.24;80.49
78210;BME280;67485;48.816;9.930;2023-02-01T20:36:25;97349.16;;;3.26;80.75
78210;BME280;67485;48.816;9.930;2023-02-01T20:38:52;97349.13;;;3.24;80.48
78210;BME280;67485;48.816;9.930;2023-02-01T20:41:18;97341.31;;;3.21;80.99
78210;BME280;67485;48.816;9.930;2023-02-01T20:43:45;97351.69;;;3.21;81.20
78210;BME280;67485;48.816;9.930;2023-02-01T20:46:10;97350.81;;;3.21;81.24
78210;BME280;67485;48.816;9.930;2023-02-01T20:48:36;97348.25;;;3.22;80.84
78210;BME280;67485;48.816;9.930;2023-02-01T20:51:06;97347.38;;;3.22;81.14
78210;BME280;67485;48.816;9.930;2023-02-01T20:53:32;97348.25;;;3.22;80.99
78210;BME280;67485;48.816;9.930;2023-02-01T20:55:57;97347.34;;;3.20;80.92
78210;BME280;67485;48.816;9.930;2023-02-01T20:58:24;97345.66;;;3.21;81.42
78210;BME280;67485;48.816;9.930;2023-02-01T21:00:50;97355.09;;;3.19;81.31
78210;BME280;67485;48.816;9.930;2023-02-01T21:03:16;97349.06;;;3.17;81.08
78210;BME280;67485;48.816;9.930;2023-02-01T21:05:50;97344.75;;;3.17;81.80
78210;BME280;67485;48.816;9.930;2023-02-01T21:08:17;97349.91;;;3.17;81.51
78210;BME280;67485;48.816;9.930;2023-02-01T21:10:43;97346.44;;;3.15;81.14
78210;BME280;67485;48.816;9.930;2023-02-01T21:13:18;97357.63;;;3.14;81.42
78210;BME280;67485;48.816;9.930;2023-02-01T21:15:44;97353.34;;;3.18;81.93
78210;BME280;67485;48.816;9.930;2023-02-01T21:18:11;97335.19;;;3.13;82.34
78210;BME280;67485;48.816;9.930;2023-02-01T21:20:38;97338.66;;;3.14;82.01
78210;BME280;67485;48.816;9.930;2023-02-01T21:23:04;97336.91;;;3.14;82.32
78210;BME280;67485;48.816;9.930;2023-02-01T21:25:30;97330.06;;;3.18;81.50
78210;BME280;67485;48.816;9.930;2023-02-01T21:27:56;97334.38;;;3.19;81.88
78210;BME280;67485;48.816;9.930;2023-02-01T21:30:21;97335.22;;;3.18;81.80
78210;BME280;67485;48.816;9.930;2023-02-01T21:32:48;97333.53;;;3.20;82.15
78210;BME280;67485;48.816;9.930;2023-02-01T21:35:15;97335.28;;;3.21;81.80
78210;BME280;67485;48.816;9.930;2023-02-01T21:37:42;97331.78;;;3.19;82.00
78210;BME280;67485;48.816;9.930;2023-02-01T21:40:08;97326.53;;;3.10;83.33
78210;BME280;67485;48.816;9.930;2023-02-01T21:42:35;97329.97;;;3.08;83.46
78210;BME280;67485;48.816;9.930;2023-02-01T21:45:02;97339.44;;;3.06;83.88
78210;BME280;67485;48.816;9.930;2023-02-01T21:47:28;97341.16;;;3.04;84.53
78210;BME280;67485;48.816;9.930;2023-02-01T21:49:54;97338.56;;;3.04;85.28
78210;BME280;67485;48.816;9.930;2023-02-01T21:52:20;97339.34;;;3.00;85.99
78210;BME280;67485;48.816;9.930;2023-02-01T21:54:46;97341.03;;;2.95;86.01
78210;BME280;67485;48.816;9.930;2023-02-01T21:57:12;97348.75;;;2.90;87.02
78210;BME280;67485;48.816;9.930;2023-02-01T21:59:39;97343.53;;;2.89;86.81
78210;BME280;67485;48.816;9.930;2023-02-01T22:02:05;97342.59;;;2.82;87.02
78210;BME280;67485;48.816;9.930;2023-02-01T22:04:32;97341.75;;;2.82;87.59
78210;BME280;67485;48.816;9.930;2023-02-01T22:06:58;97335.69;;;2.81;87.80
78210;BME280;67485;48.816;9.930;2023-02-01T22:09:25;97335.69;;;2.83;87.21
78210;BME280;67485;48.816;9.930;2023-02-01T22:11:52;97346.09;;;2.84;87.38
78210;BME280;67485;48.816;9.930;2023-02-01T22:14:18;97340.09;;;2.87;86.93
78210;BME280;67485;48.816;9.930;2023-02-01T22:16:45;97340.09;;;2.90;86.73
78210;BME280;67485;48.816;9.930;2023-02-01T22:19:11;97335.81;;;2.92;86.57
78210;BME280;67485;48.816;9.930;2023-02-01T22:21:38;97332.34;;;2.91;86.63
78210;BME280;67485;48.816;9.930;2023-02-01T22:24:08;97346.22;;;2.97;86.83
78210;BME280;67485;48.816;9.930;2023-02-01T22:26:34;97333.19;;;2.89;86.63
78210;BME280;67485;48.816;9.930;2023-02-01T22:29:00;97341.84;;;2.91;86.68
78210;BME280;67485;48.816;9.930;2023-02-01T22:31:26;97343.59;;;2.90;86.93
78210;BME280;67485;48.816;9.930;2023-02-01T22:33:52;97339.25;;;2.91;87.03
78210;BME280;67485;48.816;9.930;2023-02-01T22:36:18;97343.59;;;2.92;86.97
78210;BME280;67485;48.816;9.930;2023-02-01T22:38:45;97331.50;;;2.91;86.95
78210;BME280;67485;48.816;9.930;2023-02-01T22:41:11;97329.81;;;2.93;87.25
78210;BME280;67485;48.816;9.930;2023-02-01T22:43:37;97332.34;;;2.91;86.64
78210;BME280;67485;48.816;9.930;2023-02-01T22:46:05;97328.03;;;2.90;86.53
78210;BME280;67485;48.816;9.930;2023-02-01T22:48:34;97320.28;;;2.90;86.98
78210;BME280;67485;48.816;9.930;2023-02-01T22:51:01;97338.41;;;2.92;86.58
78210;BME280;67485;48.816;9.930;2023-02-01T22:53:28;97330.59;;;2.87;87.26
78210;BME280;67485;48.816;9.930;2023-02-01T22:56:04;97342.69;;;2.90;87.03
78210;BME280;67485;48.816;9.930;2023-02-01T22:58:31;97343.59;;;2.92;86.68
78210;BME280;67485;48.816;9.930;2023-02-01T23:01:11;97343.63;;;2.95;87.23
78210;BME280;67485;48.816;9.930;2023-02-01T23:03:37;97350.50;;;2.93;86.89
78210;BME280;67485;48.816;9.930;2023-02-01T23:06:04;97353.13;;;2.95;86.65
78210;BME280;67485;48.816;9.930;2023-02-01T23:08:31;97344.50;;;2.97;86.82
78210;BME280;67485;48.816;9.930;2023-02-01T23:11:02;97341.03;;;2.97;86.94
78210;BME280;67485;48.816;9.930;2023-02-01T23:13:30;97350.50;;;2.93;86.63
78210;BME280;67485;48.816;9.930;2023-02-01T23:15:55;97329.81;;;2.93;86.95
78210;BME280;67485;48.816;9.930;2023-02-01T23:18:21;97341.84;;;2.91;87.01
78210;BME280;67485;48.816;9.930;2023-02-01T23:20:47;97341.00;;;2.90;87.57
78210;BME280;67485;48.816;9.930;2023-02-01T23:23:13;97344.47;;;2.94;87.07
78210;BME280;67485;48.816;9.930;2023-02-01T23:25:38;97335.00;;;2.96;86.68
78210;BME280;67485;48.816;9.930;2023-02-01T23:28:04;97326.34;;;2.94;87.65
78210;BME280;67485;48.816;9.930;2023-02-01T23:30:32;97322.91;;;2.95;87.53
78210;BME280;67485;48.816;9.930;2023-02-01T23:32:58;97331.50;;;2.91;87.99
78210;BME280;67485;48.816;9.930;2023-02-01T23:35:24;97331.50;;;2.94;87.78
78210;BME280;67485;48.816;9.930;2023-02-01T23:37:49;97327.22;;;2.95;87.92
78210;BME280;67485;48.816;9.930;2023-02-01T23:40:15;97331.50;;;2.94;87.88
78210;BME280;67485;48.816;9.930;2023-02-01T23:42:41;97325.47;;;2.90;87.83
78210;BME280;67485;48.816;9.930;2023-02-01T23:45:26;97314.22;;;2.90;88.48
78210;BME280;67485;48.816;9.930;2023-02-01T23:47:52;97321.13;;;2.91;88.40
78210;BME280;67485;48.816;9.930;2023-02-01T23:50:17;97322.81;;;2.87;88.98
78210;BME280;67485;48.816;9.930;2023-02-01T23:52:43;97317.69;;;2.92;88.93
78210;BME280;67485;48.816;9.930;2023-02-01T23:55:09;97317.69;;;2.92;89.21
78210;BME280;67485;48.816;9.930;2023-02-01T23:57:34;97325.41;;;2.87;90.19
